sensor_id;sensor_type;location;lat;lon;timestamp;P1;durP1;ratioP1;P2;durP2;ratioP2
10313;SDS011;5202;49.138;10.090;2023-03-01T00:01:45;22.17;;;12.53;;
10313;SDS011;5202;49.138;10.090;2023-03-01T00:04:13;19.60;;;11.87;;
10313;SDS011;5202;49.138;10.090;2023-03-01T00:06:43;20.50;;;11.87;;
10313;SDS011;5202;49.138;10.090;2023-03-01T00:09:12;20.93;;;11.87;;
10313;SDS011;5202;49.138;10.090;2023-03-01T00:11:41;19.30;;;11.63;;
10313;SDS011;5202;49.138;10.090;2023-03-01T00:14:09;18.27;;;11.60;;
10313;SDS011;5202;49.138;10.090;2023-03-01T00:16:38;18.47;;;11.97;;
10313;SDS011;5202;49.138;10.090;2023-03-01T00:19:11;16.40;;;10.30;;
10313;SDS011;5202;49.138;10.090;2023-03-01T00:21:41;19.33;;;11.80;;
10313;SDS011;5202;49.138;10.090;2023-03-01T00:24:11;20.23;;;12.00;;
10313;SDS011;5202;49.138;10.090;2023-03-01T00:26:39;17.63;;;11.20;;
10313;SDS011;5202;49.138;10.090;2023-03-01T00:29:08;20.20;;;12.27;;
10313;SDS011;5202;49.138;10.090;2023-03-01T00:31:36;18.97;;;11.70;;
10313;SDS011;5202;49.138;10.090;2023-03-01T00:34:05;21.27;;;12.43;;
10313;SDS011;5202;49.138;10.090;2023-03-01T00:36:35;19.97;;;11.53;;
10313;SDS011;5202;49.138;10.090;2023-03-01T00:39:07;20.03;;;11.83;;
10313;SDS011;5202;49.138;10.090;2023-03-01T00:41:39;19.30;;;11.77;;
10313;SDS011;5202;49.138;10.090;2023-03-01T00:44:08;20.23;;;11.77;;
10313;SDS011;5202;49.138;10.090;2023-03-01T00:46:37;21.27;;;12.90;;
10313;SDS011;5202;49.138;10.090;2023-03-01T00:49:06;19.67;;;12.10;;
10313;SDS011;5202;49.138;10.090;2023-03-01T00:51:34;18.17;;;12.47;;
10313;SDS011;5202;49.138;10.090;2023-03-01T00:54:02;19.27;;;12.23;;
10313;SDS011;5202;49.138;10.090;2023-03-01T00:56:32;19.63;;;12.23;;
10313;SDS011;5202;49.138;10.090;2023-03-01T00:59:00;18.77;;;11.87;;
10313;SDS011;5202;49.138;10.090;2023-03-01T01:01:29;17.70;;;11.33;;
10313;SDS011;5202;49.138;10.090;2023-03-01T01:03:59;17.80;;;12.00;;
10313;SDS011;5202;49.138;10.090;2023-03-01T01:06:31;18.33;;;11.50;;
10313;SDS011;5202;49.138;10.090;2023-03-01T01:09:02;18.87;;;11.60;;
10313;SDS011;5202;49.138;10.090;2023-03-01T01:11:34;17.87;;;11.17;;
10313;SDS011;5202;49.138;10.090;2023-03-01T01:14:03;19.33;;;11.80;;
10313;SDS011;5202;49.138;10.090;2023-03-01T01:16:32;17.93;;;11.53;;
10313;SDS011;5202;49.138;10.090;2023-03-01T01:19:00;18.90;;;11.67;;
10313;SDS011;5202;49.138;10.090;2023-03-01T01:21:29;21.03;;;13.07;;
10313;SDS011;5202;49.138;10.090;2023-03-01T01:23:57;19.33;;;11.40;;
10313;SDS011;5202;49.138;10.090;2023-03-01T01:26:27;18.00;;;11.20;;
10313;SDS011;5202;49.138;10.090;2023-03-01T01:28:59;18.27;;;11.07;;
10313;SDS011;5202;49.138;10.090;2023-03-01T01:31:30;21.27;;;12.43;;
10313;SDS011;5202;49.138;10.090;2023-03-01T01:34:00;20.20;;;11.67;;
10313;SDS011;5202;49.138;10.090;2023-03-01T01:36:31;18.87;;;11.83;;
10313;SDS011;5202;49.138;10.090;2023-03-01T01:39:00;18.77;;;12.13;;
10313;SDS011;5202;49.138;10.090;2023-03-01T01:41:28;20.07;;;11.80;;
10313;SDS011;5202;49.138;10.090;2023-03-01T01:44:12;20.80;;;12.03;;
10313;SDS011;5202;49.138;10.090;2023-03-01T01:46:46;19.57;;;11.47;;
10313;SDS011;5202;49.138;10.090;2023-03-01T01:49:29;20.03;;;12.70;;
10313;SDS011;5202;49.138;10.090;2023-03-01T01:52:07;20.00;;;12.63;;
10313;SDS011;5202;49.138;10.090;2023-03-01T01:54:41;19.90;;;11.73;;
10313;SDS011;5202;49.138;10.090;2023-03-01T01:57:14;17.33;;;11.30;;
10313;SDS011;5202;49.138;10.090;2023-03-01T01:59:47;22.27;;;12.77;;
10313;SDS011;5202;49.138;10.090;2023-03-01T02:02:18;20.30;;;12.57;;
10313;SDS011;5202;49.138;10.090;2023-03-01T02:04:47;18.40;;;11.87;;
10313;SDS011;5202;49.138;10.090;2023-03-01T02:07:18;19.97;;;12.70;;
10313;SDS011;5202;49.138;10.090;2023-03-01T02:09:50;20.23;;;12.60;;
10313;SDS011;5202;49.138;10.090;2023-03-01T02:12:21;24.27;;;12.77;;
10313;SDS011;5202;49.138;10.090;2023-03-01T02:15:00;20.83;;;12.00;;
10313;SDS011;5202;49.138;10.090;2023-03-01T02:17:28;20.10;;;12.83;;
10313;SDS011;5202;49.138;10.090;2023-03-01T02:20:01;21.47;;;12.37;;
10313;SDS011;5202;49.138;10.090;2023-03-01T02:22:40;20.10;;;12.40;;
10313;SDS011;5202;49.138;10.090;2023-03-01T02:25:19;21.90;;;11.70;;
10313;SDS011;5202;49.138;10.090;2023-03-01T02:31:01;21.30;;;12.53;;
10313;SDS011;5202;49.138;10.090;2023-03-01T02:33:50;19.17;;;12.00;;
10313;SDS011;5202;49.138;10.090;2023-03-01T02:36:21;25.33;;;13.57;;
10313;SDS011;5202;49.138;10.090;2023-03-01T02:38:54;19.60;;;12.93;;
10313;SDS011;5202;49.138;10.090;2023-03-01T02:41:26;22.33;;;13.23;;
10313;SDS011;5202;49.138;10.090;2023-03-01T02:44:00;22.60;;;13.03;;
10313;SDS011;5202;49.138;10.090;2023-03-01T02:46:28;21.13;;;13.27;;
10313;SDS011;5202;49.138;10.090;2023-03-01T02:48:58;22.20;;;13.40;;
10313;SDS011;5202;49.138;10.090;2023-03-01T02:51:31;20.13;;;12.70;;
10313;SDS011;5202;49.138;10.090;2023-03-01T02:54:15;27.43;;;13.40;;
10313;SDS011;5202;49.138;10.090;2023-03-01T02:56:50;21.90;;;12.70;;
10313;SDS011;5202;49.138;10.090;2023-03-01T02:59:22;23.20;;;13.77;;
10313;SDS011;5202;49.138;10.090;2023-03-01T03:01:56;20.53;;;12.73;;
10313;SDS011;5202;49.138;10.090;2023-03-01T03:04:31;21.17;;;12.83;;
10313;SDS011;5202;49.138;10.090;2023-03-01T03:07:03;24.23;;;13.70;;
10313;SDS011;5202;49.138;10.090;2023-03-01T03:09:31;21.60;;;13.40;;
10313;SDS011;5202;49.138;10.090;2023-03-01T03:11:59;23.50;;;13.00;;
10313;SDS011;5202;49.138;10.090;2023-03-01T03:14:29;23.57;;;13.13;;
10313;SDS011;5202;49.138;10.090;2023-03-01T03:17:01;20.20;;;12.70;;
10313;SDS011;5202;49.138;10.090;2023-03-01T03:19:32;23.17;;;13.87;;
10313;SDS011;5202;49.138;10.090;2023-03-01T03:22:01;20.30;;;12.03;;
10313;SDS011;5202;49.138;10.090;2023-03-01T03:24:29;22.37;;;12.60;;
10313;SDS011;5202;49.138;10.090;2023-03-01T03:27:04;23.33;;;13.73;;
10313;SDS011;5202;49.138;10.090;2023-03-01T03:29:34;23.47;;;13.77;;
10313;SDS011;5202;49.138;10.090;2023-03-01T03:32:02;22.53;;;13.50;;
10313;SDS011;5202;49.138;10.090;2023-03-01T03:34:31;23.07;;;14.40;;
10313;SDS011;5202;49.138;10.090;2023-03-01T03:36:59;22.43;;;13.17;;
10313;SDS011;5202;49.138;10.090;2023-03-01T03:39:54;21.40;;;13.13;;
10313;SDS011;5202;49.138;10.090;2023-03-01T03:42:23;20.10;;;12.83;;
10313;SDS011;5202;49.138;10.090;2023-03-01T03:44:53;22.77;;;13.60;;
10313;SDS011;5202;49.138;10.090;2023-03-01T03:47:22;20.57;;;13.43;;
10313;SDS011;5202;49.138;10.090;2023-03-01T03:49:50;21.67;;;13.43;;
10313;SDS011;5202;49.138;10.090;2023-03-01T03:52:18;22.27;;;14.13;;
10313;SDS011;5202;49.138;10.090;2023-03-01T03:54:46;20.43;;;14.17;;
10313;SDS011;5202;49.138;10.090;2023-03-01T03:57:15;26.27;;;14.47;;
10313;SDS011;5202;49.138;10.090;2023-03-01T03:59:43;22.57;;;13.50;;
10313;SDS011;5202;49.138;10.090;2023-03-01T04:02:12;23.43;;;13.90;;
10313;SDS011;5202;49.138;10.090;2023-03-01T04:04:48;23.17;;;13.57;;
10313;SDS011;5202;49.138;10.090;2023-03-01T04:07:16;20.67;;;13.37;;
10313;SDS011;5202;49.138;10.090;2023-03-01T04:09:45;23.03;;;13.47;;
10313;SDS011;5202;49.138;10.090;2023-03-01T04:12:13;23.20;;;13.33;;
10313;SDS011;5202;49.138;10.090;2023-03-01T04:14:46;21.83;;;13.40;;
10313;SDS011;5202;49.138;10.090;2023-03-01T04:17:16;22.70;;;13.67;;
10313;SDS011;5202;49.138;10.090;2023-03-01T04:19:45;23.67;;;13.10;;
10313;SDS011;5202;49.138;10.090;2023-03-01T04:22:15;22.13;;;13.57;;
10313;SDS011;5202;49.138;10.090;2023-03-01T04:24:44;21.77;;;13.90;;
10313;SDS011;5202;49.138;10.090;2023-03-01T04:27:13;23.60;;;14.07;;
10313;SDS011;5202;49.138;10.090;2023-03-01T04:29:41;21.87;;;13.13;;
10313;SDS011;5202;49.138;10.090;2023-03-01T04:32:09;20.83;;;13.57;;
10313;SDS011;5202;49.138;10.090;2023-03-01T04:34:41;24.57;;;14.30;;
10313;SDS011;5202;49.138;10.090;2023-03-01T04:37:09;23.77;;;13.30;;
10313;SDS011;5202;49.138;10.090;2023-03-01T04:39:38;23.30;;;13.07;;
10313;SDS011;5202;49.138;10.090;2023-03-01T04:42:11;22.80;;;13.80;;
10313;SDS011;5202;49.138;10.090;2023-03-01T04:44:40;23.53;;;13.93;;
10313;SDS011;5202;49.138;10.090;2023-03-01T04:47:08;24.30;;;12.90;;
10313;SDS011;5202;49.138;10.090;2023-03-01T04:49:37;24.77;;;13.93;;
10313;SDS011;5202;49.138;10.090;2023-03-01T04:52:07;21.80;;;13.43;;
10313;SDS011;5202;49.138;10.090;2023-03-01T04:54:36;22.30;;;12.37;;
10313;SDS011;5202;49.138;10.090;2023-03-01T04:57:04;19.40;;;13.17;;
10313;SDS011;5202;49.138;10.090;2023-03-01T04:59:32;23.40;;;13.47;;
10313;SDS011;5202;49.138;10.090;2023-03-01T05:02:02;24.27;;;13.37;;
10313;SDS011;5202;49.138;10.090;2023-03-01T05:04:31;22.80;;;13.63;;
10313;SDS011;5202;49.138;10.090;2023-03-01T05:07:05;24.77;;;12.90;;
10313;SDS011;5202;49.138;10.090;2023-03-01T05:09:35;24.13;;;13.77;;
10313;SDS011;5202;49.138;10.090;2023-03-01T05:12:03;26.80;;;14.33;;
10313;SDS011;5202;49.138;10.090;2023-03-01T05:14:32;23.70;;;12.87;;
10313;SDS011;5202;49.138;10.090;2023-03-01T05:17:00;25.17;;;14.10;;
10313;SDS011;5202;49.138;10.090;2023-03-01T05:19:30;20.57;;;12.83;;
10313;SDS011;5202;49.138;10.090;2023-03-01T05:21:59;19.70;;;12.43;;
10313;SDS011;5202;49.138;10.090;2023-03-01T05:24:31;26.23;;;13.10;;
10313;SDS011;5202;49.138;10.090;2023-03-01T05:27:02;21.83;;;12.67;;
10313;SDS011;5202;49.138;10.090;2023-03-01T05:29:31;22.70;;;13.03;;
10313;SDS011;5202;49.138;10.090;2023-03-01T05:32:01;22.67;;;13.83;;
10313;SDS011;5202;49.138;10.090;2023-03-01T05:34:31;27.63;;;12.93;;
10313;SDS011;5202;49.138;10.090;2023-03-01T05:37:01;22.00;;;13.67;;
10313;SDS011;5202;49.138;10.090;2023-03-01T05:39:32;19.17;;;12.27;;
10313;SDS011;5202;49.138;10.090;2023-03-01T05:42:01;20.87;;;12.83;;
10313;SDS011;5202;49.138;10.090;2023-03-01T05:44:30;22.60;;;13.67;;
10313;SDS011;5202;49.138;10.090;2023-03-01T05:46:58;24.03;;;13.23;;
10313;SDS011;5202;49.138;10.090;2023-03-01T05:49:26;23.17;;;12.83;;
10313;SDS011;5202;49.138;10.090;2023-03-01T05:51:55;22.67;;;14.30;;
10313;SDS011;5202;49.138;10.090;2023-03-01T05:54:23;20.33;;;12.07;;
10313;SDS011;5202;49.138;10.090;2023-03-01T05:56:51;24.43;;;13.57;;
10313;SDS011;5202;49.138;10.090;2023-03-01T05:59:21;20.63;;;12.97;;
10313;SDS011;5202;49.138;10.090;2023-03-01T06:01:49;22.67;;;13.23;;
10313;SDS011;5202;49.138;10.090;2023-03-01T06:04:17;21.93;;;12.67;;
10313;SDS011;5202;49.138;10.090;2023-03-01T06:06:46;22.40;;;12.87;;
10313;SDS011;5202;49.138;10.090;2023-03-01T06:09:14;23.37;;;13.67;;
10313;SDS011;5202;49.138;10.090;2023-03-01T06:11:42;22.13;;;13.03;;
10313;SDS011;5202;49.138;10.090;2023-03-01T06:14:11;22.70;;;13.37;;
10313;SDS011;5202;49.138;10.090;2023-03-01T06:16:42;25.20;;;13.87;;
10313;SDS011;5202;49.138;10.090;2023-03-01T06:19:10;22.93;;;12.50;;
10313;SDS011;5202;49.138;10.090;2023-03-01T06:21:39;21.93;;;12.60;;
10313;SDS011;5202;49.138;10.090;2023-03-01T06:24:07;22.23;;;13.60;;
10313;SDS011;5202;49.138;10.090;2023-03-01T06:26:36;25.17;;;13.37;;
10313;SDS011;5202;49.138;10.090;2023-03-01T06:29:04;23.00;;;13.53;;
10313;SDS011;5202;49.138;10.090;2023-03-01T06:31:32;24.67;;;12.87;;
10313;SDS011;5202;49.138;10.090;2023-03-01T06:34:02;24.37;;;13.23;;
10313;SDS011;5202;49.138;10.090;2023-03-01T06:36:30;22.73;;;14.03;;
10313;SDS011;5202;49.138;10.090;2023-03-01T06:38:59;22.83;;;12.37;;
10313;SDS011;5202;49.138;10.090;2023-03-01T06:41:27;22.33;;;11.90;;
10313;SDS011;5202;49.138;10.090;2023-03-01T06:43:55;24.27;;;14.00;;
10313;SDS011;5202;49.138;10.090;2023-03-01T06:46:24;22.23;;;12.67;;
10313;SDS011;5202;49.138;10.090;2023-03-01T06:48:52;22.57;;;12.80;;
10313;SDS011;5202;49.138;10.090;2023-03-01T06:51:22;24.57;;;13.67;;
10313;SDS011;5202;49.138;10.090;2023-03-01T06:53:50;22.77;;;14.27;;
10313;SDS011;5202;49.138;10.090;2023-03-01T06:56:18;23.70;;;13.70;;
10313;SDS011;5202;49.138;10.090;2023-03-01T06:58:46;19.93;;;12.83;;
10313;SDS011;5202;49.138;10.090;2023-03-01T07:01:15;23.63;;;12.50;;
10313;SDS011;5202;49.138;10.090;2023-03-01T07:03:43;20.80;;;12.57;;
10313;SDS011;5202;49.138;10.090;2023-03-01T07:06:14;23.97;;;13.47;;
10313;SDS011;5202;49.138;10.090;2023-03-01T07:08:45;24.93;;;13.83;;
10313;SDS011;5202;49.138;10.090;2023-03-01T07:11:13;23.93;;;13.37;;
10313;SDS011;5202;49.138;10.090;2023-03-01T07:13:42;21.60;;;12.23;;
10313;SDS011;5202;49.138;10.090;2023-03-01T07:16:10;27.67;;;13.77;;
10313;SDS011;5202;49.138;10.090;2023-03-01T07:18:40;21.53;;;12.43;;
10313;SDS011;5202;49.138;10.090;2023-03-01T07:21:09;19.70;;;12.97;;
10313;SDS011;5202;49.138;10.090;2023-03-01T07:23:40;22.70;;;13.10;;
10313;SDS011;5202;49.138;10.090;2023-03-01T07:26:10;23.07;;;13.63;;
10313;SDS011;5202;49.138;10.090;2023-03-01T07:28:39;22.13;;;13.27;;
10313;SDS011;5202;49.138;10.090;2023-03-01T07:31:07;22.57;;;13.00;;
10313;SDS011;5202;49.138;10.090;2023-03-01T07:33:35;26.40;;;14.77;;
10313;SDS011;5202;49.138;10.090;2023-03-01T07:36:04;24.93;;;15.13;;
10313;SDS011;5202;49.138;10.090;2023-03-01T07:38:34;24.60;;;14.43;;
10313;SDS011;5202;49.138;10.090;2023-03-01T07:41:03;25.80;;;14.53;;
10313;SDS011;5202;49.138;10.090;2023-03-01T07:43:33;27.77;;;14.77;;
10313;SDS011;5202;49.138;10.090;2023-03-01T07:46:03;22.93;;;14.40;;
10313;SDS011;5202;49.138;10.090;2023-03-01T07:48:32;25.00;;;14.77;;
10313;SDS011;5202;49.138;10.090;2023-03-01T07:51:01;23.43;;;13.87;;
10313;SDS011;5202;49.138;10.090;2023-03-01T07:53:32;26.63;;;14.93;;
10313;SDS011;5202;49.138;10.090;2023-03-01T07:56:03;27.30;;;15.60;;
10313;SDS011;5202;49.138;10.090;2023-03-01T07:58:35;23.43;;;14.70;;
10313;SDS011;5202;49.138;10.090;2023-03-01T08:01:04;24.20;;;14.97;;
10313;SDS011;5202;49.138;10.090;2023-03-01T08:03:35;28.17;;;14.00;;
10313;SDS011;5202;49.138;10.090;2023-03-01T08:06:05;24.10;;;15.20;;
10313;SDS011;5202;49.138;10.090;2023-03-01T08:08:36;25.47;;;14.50;;
10313;SDS011;5202;49.138;10.090;2023-03-01T08:11:06;24.13;;;14.77;;
10313;SDS011;5202;49.138;10.090;2023-03-01T08:13:38;25.80;;;14.17;;
10313;SDS011;5202;49.138;10.090;2023-03-01T08:16:08;21.43;;;13.77;;
10313;SDS011;5202;49.138;10.090;2023-03-01T08:18:39;27.80;;;15.93;;
10313;SDS011;5202;49.138;10.090;2023-03-01T08:21:10;25.67;;;14.93;;
10313;SDS011;5202;49.138;10.090;2023-03-01T08:23:40;22.53;;;14.03;;
10313;SDS011;5202;49.138;10.090;2023-03-01T08:26:10;24.90;;;14.60;;
10313;SDS011;5202;49.138;10.090;2023-03-01T08:28:42;27.33;;;14.67;;
10313;SDS011;5202;49.138;10.090;2023-03-01T08:31:14;25.40;;;15.07;;
10313;SDS011;5202;49.138;10.090;2023-03-01T08:33:45;23.50;;;15.03;;
10313;SDS011;5202;49.138;10.090;2023-03-01T08:36:17;24.43;;;15.43;;
10313;SDS011;5202;49.138;10.090;2023-03-01T08:38:47;23.60;;;15.07;;
10313;SDS011;5202;49.138;10.090;2023-03-01T08:41:15;23.00;;;14.93;;
10313;SDS011;5202;49.138;10.090;2023-03-01T08:43:46;24.97;;;15.67;;
10313;SDS011;5202;49.138;10.090;2023-03-01T08:46:14;23.23;;;14.47;;
10313;SDS011;5202;49.138;10.090;2023-03-01T08:48:43;22.90;;;14.90;;
10313;SDS011;5202;49.138;10.090;2023-03-01T08:51:12;25.40;;;15.90;;
10313;SDS011;5202;49.138;10.090;2023-03-01T08:53:43;26.93;;;15.37;;
10313;SDS011;5202;49.138;10.090;2023-03-01T08:56:11;28.93;;;14.57;;
10313;SDS011;5202;49.138;10.090;2023-03-01T08:58:43;24.10;;;15.30;;
10313;SDS011;5202;49.138;10.090;2023-03-01T09:01:13;26.03;;;15.23;;
10313;SDS011;5202;49.138;10.090;2023-03-01T09:03:47;25.87;;;15.03;;
10313;SDS011;5202;49.138;10.090;2023-03-01T09:06:18;29.33;;;16.23;;
10313;SDS011;5202;49.138;10.090;2023-03-01T09:08:46;26.27;;;14.83;;
10313;SDS011;5202;49.138;10.090;2023-03-01T09:11:18;26.83;;;15.30;;
10313;SDS011;5202;49.138;10.090;2023-03-01T09:13:49;24.27;;;15.00;;
10313;SDS011;5202;49.138;10.090;2023-03-01T09:16:19;26.07;;;15.33;;
10313;SDS011;5202;49.138;10.090;2023-03-01T09:18:49;25.33;;;15.60;;
10313;SDS011;5202;49.138;10.090;2023-03-01T09:21:19;25.07;;;15.20;;
10313;SDS011;5202;49.138;10.090;2023-03-01T09:24:05;26.33;;;15.10;;
10313;SDS011;5202;49.138;10.090;2023-03-01T09:26:34;25.00;;;15.33;;
10313;SDS011;5202;49.138;10.090;2023-03-01T09:29:04;23.10;;;14.37;;
10313;SDS011;5202;49.138;10.090;2023-03-01T09:31:32;24.73;;;15.47;;
10313;SDS011;5202;49.138;10.090;2023-03-01T09:34:00;24.40;;;15.10;;
10313;SDS011;5202;49.138;10.090;2023-03-01T09:36:28;23.33;;;14.53;;
10313;SDS011;5202;49.138;10.090;2023-03-01T09:38:57;25.70;;;14.87;;
10313;SDS011;5202;49.138;10.090;2023-03-01T09:41:30;25.00;;;14.97;;
10313;SDS011;5202;49.138;10.090;2023-03-01T09:44:13;21.17;;;14.57;;
10313;SDS011;5202;49.138;10.090;2023-03-01T09:46:51;20.83;;;13.50;;
10313;SDS011;5202;49.138;10.090;2023-03-01T09:49:21;22.93;;;13.77;;
10313;SDS011;5202;49.138;10.090;2023-03-01T09:51:58;23.67;;;14.60;;
10313;SDS011;5202;49.138;10.090;2023-03-01T09:54:32;21.40;;;14.60;;
10313;SDS011;5202;49.138;10.090;2023-03-01T09:57:05;27.97;;;14.40;;
10313;SDS011;5202;49.138;10.090;2023-03-01T09:59:50;23.50;;;15.00;;
10313;SDS011;5202;49.138;10.090;2023-03-01T10:02:33;25.07;;;13.93;;
10313;SDS011;5202;49.138;10.090;2023-03-01T10:05:14;23.07;;;13.80;;
10313;SDS011;5202;49.138;10.090;2023-03-01T10:08:05;21.37;;;13.73;;
10313;SDS011;5202;49.138;10.090;2023-03-01T10:10:52;25.27;;;14.63;;
10313;SDS011;5202;49.138;10.090;2023-03-01T10:13:21;32.63;;;14.27;;
10313;SDS011;5202;49.138;10.090;2023-03-01T10:15:57;24.10;;;14.53;;
10313;SDS011;5202;49.138;10.090;2023-03-01T10:18:31;25.50;;;14.57;;
10313;SDS011;5202;49.138;10.090;2023-03-01T10:21:08;25.53;;;13.87;;
10313;SDS011;5202;49.138;10.090;2023-03-01T10:23:43;26.37;;;14.73;;
10313;SDS011;5202;49.138;10.090;2023-03-01T10:26:16;23.27;;;14.47;;
10313;SDS011;5202;49.138;10.090;2023-03-01T10:29:01;23.73;;;13.90;;
10313;SDS011;5202;49.138;10.090;2023-03-01T10:31:38;20.73;;;13.53;;
10313;SDS011;5202;49.138;10.090;2023-03-01T10:34:12;22.63;;;14.30;;
10313;SDS011;5202;49.138;10.090;2023-03-01T10:36:44;25.17;;;13.70;;
10313;SDS011;5202;49.138;10.090;2023-03-01T10:39:18;21.70;;;14.43;;
10313;SDS011;5202;49.138;10.090;2023-03-01T10:41:59;21.50;;;13.60;;
10313;SDS011;5202;49.138;10.090;2023-03-01T10:44:35;21.80;;;14.10;;
10313;SDS011;5202;49.138;10.090;2023-03-01T10:47:13;20.23;;;13.37;;
10313;SDS011;5202;49.138;10.090;2023-03-01T10:49:51;19.03;;;13.30;;
10313;SDS011;5202;49.138;10.090;2023-03-01T10:52:24;23.63;;;14.00;;
10313;SDS011;5202;49.138;10.090;2023-03-01T10:55:00;23.07;;;14.03;;
10313;SDS011;5202;49.138;10.090;2023-03-01T10:57:36;23.47;;;13.80;;
10313;SDS011;5202;49.138;10.090;2023-03-01T11:00:24;22.10;;;12.97;;
10313;SDS011;5202;49.138;10.090;2023-03-01T11:03:11;21.77;;;13.10;;
10313;SDS011;5202;49.138;10.090;2023-03-01T11:05:53;22.83;;;13.67;;
10313;SDS011;5202;49.138;10.090;2023-03-01T11:08:33;21.57;;;14.63;;
10313;SDS011;5202;49.138;10.090;2023-03-01T11:11:06;23.37;;;14.37;;
10313;SDS011;5202;49.138;10.090;2023-03-01T11:13:50;21.67;;;13.17;;
10313;SDS011;5202;49.138;10.090;2023-03-01T11:16:32;20.43;;;13.17;;
10313;SDS011;5202;49.138;10.090;2023-03-01T11:19:13;18.90;;;13.23;;
10313;SDS011;5202;49.138;10.090;2023-03-01T11:21:49;21.73;;;12.73;;
10313;SDS011;5202;49.138;10.090;2023-03-01T11:24:31;20.17;;;13.37;;
10313;SDS011;5202;49.138;10.090;2023-03-01T11:27:14;21.30;;;13.70;;
10313;SDS011;5202;49.138;10.090;2023-03-01T11:29:51;19.97;;;11.90;;
10313;SDS011;5202;49.138;10.090;2023-03-01T11:32:23;19.03;;;13.17;;
10313;SDS011;5202;49.138;10.090;2023-03-01T11:34:57;21.07;;;13.93;;
10313;SDS011;5202;49.138;10.090;2023-03-01T11:37:32;20.00;;;13.07;;
10313;SDS011;5202;49.138;10.090;2023-03-01T11:40:10;20.33;;;13.50;;
10313;SDS011;5202;49.138;10.090;2023-03-01T11:42:54;19.03;;;13.37;;
10313;SDS011;5202;49.138;10.090;2023-03-01T11:45:43;20.37;;;13.07;;
10313;SDS011;5202;49.138;10.090;2023-03-01T11:48:44;19.97;;;12.43;;
10313;SDS011;5202;49.138;10.090;2023-03-01T11:51:30;23.13;;;13.47;;
10313;SDS011;5202;49.138;10.090;2023-03-01T11:54:13;20.67;;;13.00;;
10313;SDS011;5202;49.138;10.090;2023-03-01T11:56:55;22.20;;;13.93;;
10313;SDS011;5202;49.138;10.090;2023-03-01T11:59:37;18.10;;;12.37;;
10313;SDS011;5202;49.138;10.090;2023-03-01T12:02:57;22.30;;;13.97;;
10313;SDS011;5202;49.138;10.090;2023-03-01T12:08:56;21.87;;;12.63;;
10313;SDS011;5202;49.138;10.090;2023-03-01T12:11:43;23.17;;;14.10;;
10313;SDS011;5202;49.138;10.090;2023-03-01T12:14:36;20.90;;;13.30;;
10313;SDS011;5202;49.138;10.090;2023-03-01T12:17:23;18.07;;;12.00;;
10313;SDS011;5202;49.138;10.090;2023-03-01T12:20:28;18.83;;;12.20;;
10313;SDS011;5202;49.138;10.090;2023-03-01T12:23:13;20.33;;;13.03;;
10313;SDS011;5202;49.138;10.090;2023-03-01T12:26:00;20.33;;;12.57;;
10313;SDS011;5202;49.138;10.090;2023-03-01T12:28:45;19.73;;;12.80;;
10313;SDS011;5202;49.138;10.090;2023-03-01T12:31:32;19.37;;;12.83;;
10313;SDS011;5202;49.138;10.090;2023-03-01T12:34:29;18.50;;;13.43;;
10313;SDS011;5202;49.138;10.090;2023-03-01T12:37:12;19.60;;;13.10;;
10313;SDS011;5202;49.138;10.090;2023-03-01T12:39:56;21.87;;;13.90;;
10313;SDS011;5202;49.138;10.090;2023-03-01T12:42:51;19.27;;;13.03;;
10313;SDS011;5202;49.138;10.090;2023-03-01T12:45:32;19.63;;;12.83;;
10313;SDS011;5202;49.138;10.090;2023-03-01T12:48:34;21.77;;;13.63;;
10313;SDS011;5202;49.138;10.090;2023-03-01T12:51:11;18.60;;;13.03;;
10313;SDS011;5202;49.138;10.090;2023-03-01T12:53:44;18.53;;;12.80;;
10313;SDS011;5202;49.138;10.090;2023-03-01T12:56:17;17.60;;;12.67;;
10313;SDS011;5202;49.138;10.090;2023-03-01T12:58:54;20.73;;;12.83;;
10313;SDS011;5202;49.138;10.090;2023-03-01T13:01:40;19.33;;;12.43;;
10313;SDS011;5202;49.138;10.090;2023-03-01T13:04:26;20.83;;;14.10;;
10313;SDS011;5202;49.138;10.090;2023-03-01T13:07:11;23.27;;;14.20;;
10313;SDS011;5202;49.138;10.090;2023-03-01T13:09:52;19.30;;;12.70;;
10313;SDS011;5202;49.138;10.090;2023-03-01T13:12:43;16.73;;;12.20;;
10313;SDS011;5202;49.138;10.090;2023-03-01T13:15:28;22.60;;;14.13;;
10313;SDS011;5202;49.138;10.090;2023-03-01T13:18:03;18.67;;;12.97;;
10313;SDS011;5202;49.138;10.090;2023-03-01T13:20:56;19.63;;;12.40;;
10313;SDS011;5202;49.138;10.090;2023-03-01T13:23:27;20.30;;;13.50;;
10313;SDS011;5202;49.138;10.090;2023-03-01T13:26:12;19.30;;;13.47;;
10313;SDS011;5202;49.138;10.090;2023-03-01T13:28:55;18.90;;;12.50;;
10313;SDS011;5202;49.138;10.090;2023-03-01T13:37:31;18.13;;;12.20;;
10313;SDS011;5202;49.138;10.090;2023-03-01T13:43:28;20.17;;;11.90;;
10313;SDS011;5202;49.138;10.090;2023-03-01T13:45:59;16.37;;;11.20;;
10313;SDS011;5202;49.138;10.090;2023-03-01T13:48:31;19.70;;;12.80;;
10313;SDS011;5202;49.138;10.090;2023-03-01T13:51:02;17.33;;;12.47;;
10313;SDS011;5202;49.138;10.090;2023-03-01T13:53:35;18.53;;;12.17;;
10313;SDS011;5202;49.138;10.090;2023-03-01T13:56:08;19.23;;;12.50;;
10313;SDS011;5202;49.138;10.090;2023-03-01T13:58:47;19.73;;;12.83;;
10313;SDS011;5202;49.138;10.090;2023-03-01T14:01:20;18.27;;;12.03;;
10313;SDS011;5202;49.138;10.090;2023-03-01T14:03:53;17.77;;;11.33;;
10313;SDS011;5202;49.138;10.090;2023-03-01T14:06:23;21.10;;;12.73;;
10313;SDS011;5202;49.138;10.090;2023-03-01T14:09:00;17.70;;;10.90;;
10313;SDS011;5202;49.138;10.090;2023-03-01T14:14:47;17.70;;;12.40;;
10313;SDS011;5202;49.138;10.090;2023-03-01T14:22:46;16.77;;;11.77;;
10313;SDS011;5202;49.138;10.090;2023-03-01T14:25:19;20.93;;;12.17;;
10313;SDS011;5202;49.138;10.090;2023-03-01T14:27:52;17.10;;;11.73;;
10313;SDS011;5202;49.138;10.090;2023-03-01T14:30:25;16.40;;;11.07;;
10313;SDS011;5202;49.138;10.090;2023-03-01T14:33:00;16.90;;;11.67;;
10313;SDS011;5202;49.138;10.090;2023-03-01T14:35:34;19.73;;;12.17;;
10313;SDS011;5202;49.138;10.090;2023-03-01T14:38:03;18.50;;;11.93;;
10313;SDS011;5202;49.138;10.090;2023-03-01T14:40:33;18.00;;;11.10;;
10313;SDS011;5202;49.138;10.090;2023-03-01T14:43:08;17.20;;;11.90;;
10313;SDS011;5202;49.138;10.090;2023-03-01T14:45:42;18.83;;;11.53;;
10313;SDS011;5202;49.138;10.090;2023-03-01T14:48:16;18.67;;;11.30;;
10313;SDS011;5202;49.138;10.090;2023-03-01T14:50:47;21.60;;;12.43;;
10313;SDS011;5202;49.138;10.090;2023-03-01T14:53:16;16.67;;;11.77;;
10313;SDS011;5202;49.138;10.090;2023-03-01T14:55:49;19.83;;;12.73;;
10313;SDS011;5202;49.138;10.090;2023-03-01T14:58:21;17.37;;;11.67;;
10313;SDS011;5202;49.138;10.090;2023-03-01T15:00:53;16.70;;;11.50;;
10313;SDS011;5202;49.138;10.090;2023-03-01T15:03:25;15.40;;;11.20;;
10313;SDS011;5202;49.138;10.090;2023-03-01T15:06:01;20.23;;;13.63;;
10313;SDS011;5202;49.138;10.090;2023-03-01T15:08:31;21.07;;;13.63;;
10313;SDS011;5202;49.138;10.090;2023-03-01T15:11:02;17.60;;;11.87;;
10313;SDS011;5202;49.138;10.090;2023-03-01T15:13:35;14.63;;;11.27;;
10313;SDS011;5202;49.138;10.090;2023-03-01T15:16:04;17.70;;;12.07;;
10313;SDS011;5202;49.138;10.090;2023-03-01T15:18:36;17.97;;;11.37;;
10313;SDS011;5202;49.138;10.090;2023-03-01T15:21:08;16.90;;;11.50;;